This is the latest recevied weather packets stored in our database for station/object SP2FH-13. If no packets are shown the sender has not sent any weather packets the latest 10 day(s).
| Time | Temp. | Humidity | Pressure | Rain* | Wind** | Luminosity | Snow |
|---|---|---|---|---|---|---|---|
| 1777669836 | 10° C | 66% | 1013.9 hPa | - | - | - | - |
| 1777669535 | 9.44° C | 64% | 1014 hPa | - | - | - | - |
| 1777669234 | 8.89° C | 69% | 1014 hPa | - | - | - | - |
| 1777668933 | 8.89° C | 72% | 1014 hPa | - | - | - | - |
| 1777668632 | 11.11° C | 63% | 1014 hPa | - | - | - | - |
| 1777668331 | 11.11° C | 59% | 1014 hPa | - | - | - | - |
| 1777668030 | 11.11° C | 63% | 1014 hPa | - | - | - | - |
| 1777667729 | 11.11° C | 63% | 1014 hPa | - | - | - | - |
| 1777667428 | 10.56° C | 63% | 1014 hPa | - | - | - | - |
| 1777667127 | 10° C | 66% | 1014 hPa | - | - | - | - |
| 1777666826 | 10° C | 68% | 1014.1 hPa | - | - | - | - |
| 1777666525 | 11.67° C | 63% | 1014.1 hPa | - | - | - | - |
| 1777666224 | 11.67° C | 59% | 1014.1 hPa | - | - | - | - |
| 1777665923 | 11.11° C | 62% | 1014.1 hPa | - | - | - | - |
| 1777665622 | 11.11° C | 65% | 1014.1 hPa | - | - | - | - |
| 1777665321 | 11.11° C | 65% | 1014.2 hPa | - | - | - | - |
| 1777665020 | 11.11° C | 63% | 1014.2 hPa | - | - | - | - |
| 1777664719 | 11.67° C | 61% | 1014.1 hPa | - | - | - | - |
| 1777664419 | 11.11° C | 63% | 1014.2 hPa | - | - | - | - |
| 1777664118 | 12.78° C | 58% | 1014.1 hPa | - | - | - | - |
| 1777663817 | 13.33° C | 51% | 1014 hPa | - | - | - | - |
| 1777663516 | 12.78° C | 52% | 1014 hPa | - | - | - | - |
| 1777663215 | 12.78° C | 58% | 1014.1 hPa | - | - | - | - |
| 1777662914 | 12.78° C | 57% | 1014.1 hPa | - | - | - | - |
| 1777662613 | 13.33° C | 55% | 1014 hPa | - | - | - | - |
* Rain since midnight (hover to see other rain measurements)
** Current wind speed in m/s (hover to see current wind gust speed)